sensor_id;sensor_type;location;lat;lon;timestamp;P1;durP1;ratioP1;P2;durP2;ratioP2
15968;SDS011;8085;53.472;9.794;2023-01-08T00:02:03;3.00;;;2.20;;
15968;SDS011;8085;53.472;9.794;2023-01-08T00:04:30;3.10;;;2.07;;
15968;SDS011;8085;53.472;9.794;2023-01-08T00:06:57;3.70;;;2.20;;
15968;SDS011;8085;53.472;9.794;2023-01-08T00:09:23;2.50;;;1.93;;
15968;SDS011;8085;53.472;9.794;2023-01-08T00:11:50;2.40;;;1.90;;
15968;SDS011;8085;53.472;9.794;2023-01-08T00:14:18;3.03;;;2.23;;
15968;SDS011;8085;53.472;9.794;2023-01-08T00:16:45;5.20;;;2.10;;
15968;SDS011;8085;53.472;9.794;2023-01-08T00:19:12;4.20;;;2.20;;
15968;SDS011;8085;53.472;9.794;2023-01-08T00:21:39;2.97;;;2.17;;
15968;SDS011;8085;53.472;9.794;2023-01-08T00:24:06;3.13;;;2.23;;
15968;SDS011;8085;53.472;9.794;2023-01-08T00:26:33;3.20;;;2.10;;
15968;SDS011;8085;53.472;9.794;2023-01-08T00:29:00;4.67;;;2.33;;
15968;SDS011;8085;53.472;9.794;2023-01-08T00:31:28;3.37;;;2.20;;
15968;SDS011;8085;53.472;9.794;2023-01-08T00:33:55;2.70;;;1.80;;
15968;SDS011;8085;53.472;9.794;2023-01-08T00:36:21;2.73;;;2.10;;
15968;SDS011;8085;53.472;9.794;2023-01-08T00:38:48;2.97;;;2.10;;
15968;SDS011;8085;53.472;9.794;2023-01-08T00:41:17;3.57;;;2.30;;
15968;SDS011;8085;53.472;9.794;2023-01-08T00:43:44;4.23;;;2.30;;
15968;SDS011;8085;53.472;9.794;2023-01-08T00:46:11;2.83;;;2.13;;
15968;SDS011;8085;53.472;9.794;2023-01-08T00:48:39;2.83;;;2.10;;
15968;SDS011;8085;53.472;9.794;2023-01-08T00:51:06;4.17;;;2.17;;
15968;SDS011;8085;53.472;9.794;2023-01-08T00:53:33;2.50;;;2.13;;
15968;SDS011;8085;53.472;9.794;2023-01-08T00:56:02;4.00;;;3.17;;
15968;SDS011;8085;53.472;9.794;2023-01-08T00:58:30;3.60;;;2.70;;
15968;SDS011;8085;53.472;9.794;2023-01-08T01:00:57;3.93;;;2.47;;
15968;SDS011;8085;53.472;9.794;2023-01-08T01:03:24;3.30;;;2.33;;
15968;SDS011;8085;53.472;9.794;2023-01-08T01:05:59;3.03;;;2.20;;
15968;SDS011;8085;53.472;9.794;2023-01-08T01:08:27;4.07;;;2.20;;
15968;SDS011;8085;53.472;9.794;2023-01-08T01:10:53;3.27;;;2.30;;
15968;SDS011;8085;53.472;9.794;2023-01-08T01:13:20;3.43;;;2.27;;
15968;SDS011;8085;53.472;9.794;2023-01-08T01:15:56;3.73;;;2.40;;
15968;SDS011;8085;53.472;9.794;2023-01-08T01:18:24;3.17;;;2.20;;
15968;SDS011;8085;53.472;9.794;2023-01-08T01:20:51;2.87;;;2.07;;
15968;SDS011;8085;53.472;9.794;2023-01-08T01:23:20;4.00;;;2.50;;
15968;SDS011;8085;53.472;9.794;2023-01-08T01:25:46;5.13;;;2.50;;
15968;SDS011;8085;53.472;9.794;2023-01-08T01:28:13;3.50;;;2.33;;
15968;SDS011;8085;53.472;9.794;2023-01-08T01:30:41;6.47;;;2.20;;
15968;SDS011;8085;53.472;9.794;2023-01-08T01:33:07;3.63;;;2.27;;
15968;SDS011;8085;53.472;9.794;2023-01-08T01:35:34;8.17;;;5.10;;
15968;SDS011;8085;53.472;9.794;2023-01-08T01:38:01;5.07;;;3.30;;
15968;SDS011;8085;53.472;9.794;2023-01-08T01:40:29;3.30;;;2.30;;
15968;SDS011;8085;53.472;9.794;2023-01-08T01:42:56;4.23;;;2.23;;
15968;SDS011;8085;53.472;9.794;2023-01-08T01:45:23;2.57;;;2.03;;
15968;SDS011;8085;53.472;9.794;2023-01-08T01:47:53;2.73;;;1.90;;
15968;SDS011;8085;53.472;9.794;2023-01-08T01:50:24;4.43;;;2.50;;
15968;SDS011;8085;53.472;9.794;2023-01-08T01:52:56;3.83;;;2.33;;
15968;SDS011;8085;53.472;9.794;2023-01-08T01:55:26;2.30;;;2.03;;
15968;SDS011;8085;53.472;9.794;2023-01-08T01:57:57;3.93;;;2.30;;
15968;SDS011;8085;53.472;9.794;2023-01-08T02:00:30;3.20;;;2.40;;
15968;SDS011;8085;53.472;9.794;2023-01-08T02:02:58;3.00;;;2.27;;
15968;SDS011;8085;53.472;9.794;2023-01-08T02:05:26;5.00;;;2.30;;
15968;SDS011;8085;53.472;9.794;2023-01-08T02:08:01;3.97;;;2.50;;
15968;SDS011;8085;53.472;9.794;2023-01-08T02:10:36;3.03;;;2.27;;
15968;SDS011;8085;53.472;9.794;2023-01-08T02:13:11;2.47;;;1.83;;
15968;SDS011;8085;53.472;9.794;2023-01-08T02:15:46;3.50;;;2.23;;
15968;SDS011;8085;53.472;9.794;2023-01-08T02:18:18;2.57;;;2.07;;
15968;SDS011;8085;53.472;9.794;2023-01-08T02:20:51;5.87;;;2.40;;
15968;SDS011;8085;53.472;9.794;2023-01-08T02:23:24;2.87;;;2.00;;
15968;SDS011;8085;53.472;9.794;2023-01-08T02:26:03;3.37;;;2.57;;
15968;SDS011;8085;53.472;9.794;2023-01-08T02:28:37;3.47;;;2.40;;
15968;SDS011;8085;53.472;9.794;2023-01-08T02:31:07;4.30;;;2.47;;
15968;SDS011;8085;53.472;9.794;2023-01-08T02:33:37;3.33;;;2.30;;
15968;SDS011;8085;53.472;9.794;2023-01-08T02:36:14;2.57;;;2.30;;
15968;SDS011;8085;53.472;9.794;2023-01-08T02:38:54;2.50;;;2.00;;
15968;SDS011;8085;53.472;9.794;2023-01-08T02:41:31;2.27;;;2.07;;
15968;SDS011;8085;53.472;9.794;2023-01-08T02:44:07;2.70;;;2.10;;
15968;SDS011;8085;53.472;9.794;2023-01-08T02:46:38;3.20;;;2.30;;
15968;SDS011;8085;53.472;9.794;2023-01-08T02:49:07;3.83;;;1.90;;
15968;SDS011;8085;53.472;9.794;2023-01-08T02:51:38;2.73;;;2.23;;
15968;SDS011;8085;53.472;9.794;2023-01-08T02:54:10;3.30;;;2.07;;
15968;SDS011;8085;53.472;9.794;2023-01-08T02:56:42;2.87;;;2.00;;
15968;SDS011;8085;53.472;9.794;2023-01-08T02:59:11;2.37;;;2.00;;
15968;SDS011;8085;53.472;9.794;2023-01-08T03:01:40;2.53;;;2.03;;
15968;SDS011;8085;53.472;9.794;2023-01-08T03:04:11;3.30;;;2.03;;
15968;SDS011;8085;53.472;9.794;2023-01-08T03:06:40;4.10;;;2.23;;
15968;SDS011;8085;53.472;9.794;2023-01-08T03:09:08;3.13;;;2.10;;
15968;SDS011;8085;53.472;9.794;2023-01-08T03:11:36;5.60;;;2.10;;
15968;SDS011;8085;53.472;9.794;2023-01-08T03:14:09;3.23;;;2.03;;
15968;SDS011;8085;53.472;9.794;2023-01-08T03:16:42;4.23;;;2.40;;
15968;SDS011;8085;53.472;9.794;2023-01-08T03:19:13;2.70;;;2.10;;
15968;SDS011;8085;53.472;9.794;2023-01-08T03:21:45;3.50;;;2.40;;
15968;SDS011;8085;53.472;9.794;2023-01-08T03:24:13;4.00;;;2.30;;
15968;SDS011;8085;53.472;9.794;2023-01-08T03:26:42;3.17;;;2.30;;
15968;SDS011;8085;53.472;9.794;2023-01-08T03:29:13;3.27;;;1.97;;
15968;SDS011;8085;53.472;9.794;2023-01-08T03:31:42;2.73;;;1.97;;
15968;SDS011;8085;53.472;9.794;2023-01-08T03:34:11;4.90;;;1.80;;
15968;SDS011;8085;53.472;9.794;2023-01-08T03:36:41;3.30;;;2.17;;
15968;SDS011;8085;53.472;9.794;2023-01-08T03:39:12;4.47;;;2.00;;
15968;SDS011;8085;53.472;9.794;2023-01-08T03:41:44;3.53;;;2.20;;
15968;SDS011;8085;53.472;9.794;2023-01-08T03:44:14;2.70;;;1.90;;
15968;SDS011;8085;53.472;9.794;2023-01-08T03:46:43;4.77;;;2.13;;
15968;SDS011;8085;53.472;9.794;2023-01-08T03:49:13;3.10;;;1.93;;
15968;SDS011;8085;53.472;9.794;2023-01-08T03:51:41;3.17;;;2.20;;
15968;SDS011;8085;53.472;9.794;2023-01-08T03:54:12;2.30;;;1.73;;
15968;SDS011;8085;53.472;9.794;2023-01-08T03:56:40;3.70;;;2.20;;
15968;SDS011;8085;53.472;9.794;2023-01-08T03:59:08;3.00;;;2.20;;
15968;SDS011;8085;53.472;9.794;2023-01-08T04:01:37;5.93;;;2.50;;
15968;SDS011;8085;53.472;9.794;2023-01-08T04:04:04;3.20;;;1.97;;
15968;SDS011;8085;53.472;9.794;2023-01-08T04:06:31;2.50;;;2.00;;
15968;SDS011;8085;53.472;9.794;2023-01-08T04:08:57;2.93;;;1.97;;
15968;SDS011;8085;53.472;9.794;2023-01-08T04:11:24;3.17;;;2.17;;
15968;SDS011;8085;53.472;9.794;2023-01-08T04:13:51;2.60;;;2.23;;
15968;SDS011;8085;53.472;9.794;2023-01-08T04:16:18;3.03;;;1.67;;
15968;SDS011;8085;53.472;9.794;2023-01-08T04:18:46;2.43;;;2.03;;
15968;SDS011;8085;53.472;9.794;2023-01-08T04:21:13;3.13;;;2.20;;
15968;SDS011;8085;53.472;9.794;2023-01-08T04:23:40;3.03;;;2.03;;
15968;SDS011;8085;53.472;9.794;2023-01-08T04:26:06;2.63;;;2.13;;
15968;SDS011;8085;53.472;9.794;2023-01-08T04:28:34;4.43;;;2.27;;
15968;SDS011;8085;53.472;9.794;2023-01-08T04:31:03;2.73;;;2.10;;
15968;SDS011;8085;53.472;9.794;2023-01-08T04:33:31;2.80;;;1.97;;
15968;SDS011;8085;53.472;9.794;2023-01-08T04:35:59;3.00;;;2.03;;
15968;SDS011;8085;53.472;9.794;2023-01-08T04:38:26;3.83;;;2.20;;
15968;SDS011;8085;53.472;9.794;2023-01-08T04:40:54;2.73;;;2.23;;
15968;SDS011;8085;53.472;9.794;2023-01-08T04:43:22;3.10;;;2.40;;
15968;SDS011;8085;53.472;9.794;2023-01-08T04:45:48;2.77;;;2.07;;
15968;SDS011;8085;53.472;9.794;2023-01-08T04:48:15;2.87;;;2.03;;
15968;SDS011;8085;53.472;9.794;2023-01-08T04:50:42;2.77;;;2.10;;
15968;SDS011;8085;53.472;9.794;2023-01-08T04:53:10;4.93;;;2.27;;
15968;SDS011;8085;53.472;9.794;2023-01-08T04:55:37;4.50;;;2.20;;
15968;SDS011;8085;53.472;9.794;2023-01-08T04:58:04;3.03;;;2.10;;
15968;SDS011;8085;53.472;9.794;2023-01-08T05:00:31;2.40;;;2.20;;
15968;SDS011;8085;53.472;9.794;2023-01-08T05:02:57;3.70;;;2.60;;
15968;SDS011;8085;53.472;9.794;2023-01-08T05:05:24;2.90;;;2.30;;
15968;SDS011;8085;53.472;9.794;2023-01-08T05:07:51;2.33;;;1.70;;
15968;SDS011;8085;53.472;9.794;2023-01-08T05:10:19;5.03;;;2.20;;
15968;SDS011;8085;53.472;9.794;2023-01-08T05:12:46;4.47;;;2.50;;
15968;SDS011;8085;53.472;9.794;2023-01-08T05:15:12;4.13;;;2.33;;
15968;SDS011;8085;53.472;9.794;2023-01-08T05:17:39;3.80;;;2.10;;
15968;SDS011;8085;53.472;9.794;2023-01-08T05:20:07;3.63;;;2.50;;
15968;SDS011;8085;53.472;9.794;2023-01-08T05:22:34;3.30;;;2.10;;
15968;SDS011;8085;53.472;9.794;2023-01-08T05:25:01;3.87;;;2.30;;
15968;SDS011;8085;53.472;9.794;2023-01-08T05:27:29;3.00;;;2.17;;
15968;SDS011;8085;53.472;9.794;2023-01-08T05:29:56;2.97;;;2.23;;
15968;SDS011;8085;53.472;9.794;2023-01-08T05:32:23;2.80;;;2.17;;
15968;SDS011;8085;53.472;9.794;2023-01-08T05:34:49;3.97;;;2.40;;
15968;SDS011;8085;53.472;9.794;2023-01-08T05:37:16;3.13;;;2.30;;
15968;SDS011;8085;53.472;9.794;2023-01-08T05:39:43;3.30;;;2.10;;
15968;SDS011;8085;53.472;9.794;2023-01-08T05:42:10;4.70;;;2.37;;
15968;SDS011;8085;53.472;9.794;2023-01-08T05:44:38;3.07;;;2.00;;
15968;SDS011;8085;53.472;9.794;2023-01-08T05:47:04;4.03;;;2.50;;
15968;SDS011;8085;53.472;9.794;2023-01-08T05:49:31;2.97;;;2.20;;
15968;SDS011;8085;53.472;9.794;2023-01-08T05:51:58;3.80;;;2.27;;
15968;SDS011;8085;53.472;9.794;2023-01-08T05:54:25;2.97;;;2.27;;
15968;SDS011;8085;53.472;9.794;2023-01-08T05:56:52;3.03;;;1.93;;
15968;SDS011;8085;53.472;9.794;2023-01-08T05:59:18;3.20;;;2.00;;
15968;SDS011;8085;53.472;9.794;2023-01-08T06:01:46;2.73;;;2.13;;
15968;SDS011;8085;53.472;9.794;2023-01-08T06:04:13;3.93;;;2.20;;
15968;SDS011;8085;53.472;9.794;2023-01-08T06:06:40;2.90;;;2.13;;
15968;SDS011;8085;53.472;9.794;2023-01-08T06:09:07;2.73;;;2.40;;
15968;SDS011;8085;53.472;9.794;2023-01-08T06:11:34;3.53;;;1.97;;
15968;SDS011;8085;53.472;9.794;2023-01-08T06:14:01;3.30;;;2.50;;
15968;SDS011;8085;53.472;9.794;2023-01-08T06:16:27;3.03;;;2.30;;
15968;SDS011;8085;53.472;9.794;2023-01-08T06:18:55;2.47;;;2.00;;
15968;SDS011;8085;53.472;9.794;2023-01-08T06:21:22;5.10;;;2.13;;
15968;SDS011;8085;53.472;9.794;2023-01-08T06:23:49;3.00;;;2.27;;
15968;SDS011;8085;53.472;9.794;2023-01-08T06:26:16;3.33;;;2.40;;
15968;SDS011;8085;53.472;9.794;2023-01-08T06:28:42;3.27;;;2.20;;
15968;SDS011;8085;53.472;9.794;2023-01-08T06:31:09;4.10;;;2.43;;
15968;SDS011;8085;53.472;9.794;2023-01-08T06:33:36;3.40;;;2.23;;
15968;SDS011;8085;53.472;9.794;2023-01-08T06:36:04;2.70;;;2.13;;
15968;SDS011;8085;53.472;9.794;2023-01-08T06:38:32;3.27;;;2.00;;
15968;SDS011;8085;53.472;9.794;2023-01-08T06:41:02;3.00;;;2.10;;
15968;SDS011;8085;53.472;9.794;2023-01-08T06:43:29;4.23;;;2.33;;
15968;SDS011;8085;53.472;9.794;2023-01-08T06:45:56;3.13;;;2.27;;
15968;SDS011;8085;53.472;9.794;2023-01-08T06:48:23;3.13;;;2.07;;
15968;SDS011;8085;53.472;9.794;2023-01-08T06:50:50;2.63;;;2.00;;
15968;SDS011;8085;53.472;9.794;2023-01-08T06:53:19;2.60;;;2.00;;
15968;SDS011;8085;53.472;9.794;2023-01-08T06:55:46;2.83;;;2.30;;
15968;SDS011;8085;53.472;9.794;2023-01-08T06:58:12;4.00;;;2.37;;
15968;SDS011;8085;53.472;9.794;2023-01-08T07:00:39;2.83;;;2.50;;
15968;SDS011;8085;53.472;9.794;2023-01-08T07:03:06;4.27;;;2.30;;
15968;SDS011;8085;53.472;9.794;2023-01-08T07:05:34;5.77;;;2.63;;
15968;SDS011;8085;53.472;9.794;2023-01-08T07:08:01;4.27;;;2.50;;
15968;SDS011;8085;53.472;9.794;2023-01-08T07:10:29;3.40;;;2.10;;
15968;SDS011;8085;53.472;9.794;2023-01-08T07:12:56;4.10;;;2.17;;
15968;SDS011;8085;53.472;9.794;2023-01-08T07:15:23;3.40;;;2.30;;
15968;SDS011;8085;53.472;9.794;2023-01-08T07:17:50;3.33;;;2.30;;
15968;SDS011;8085;53.472;9.794;2023-01-08T07:20:17;2.77;;;2.00;;
15968;SDS011;8085;53.472;9.794;2023-01-08T07:22:44;4.43;;;2.37;;
15968;SDS011;8085;53.472;9.794;2023-01-08T07:25:10;2.90;;;2.20;;
15968;SDS011;8085;53.472;9.794;2023-01-08T07:27:38;2.50;;;2.13;;
15968;SDS011;8085;53.472;9.794;2023-01-08T07:30:06;3.40;;;2.00;;
15968;SDS011;8085;53.472;9.794;2023-01-08T07:32:33;4.00;;;2.40;;
15968;SDS011;8085;53.472;9.794;2023-01-08T07:35:00;3.13;;;2.00;;
15968;SDS011;8085;53.472;9.794;2023-01-08T07:37:27;3.03;;;1.97;;
15968;SDS011;8085;53.472;9.794;2023-01-08T07:39:54;4.20;;;2.43;;
15968;SDS011;8085;53.472;9.794;2023-01-08T07:42:20;3.77;;;2.40;;
15968;SDS011;8085;53.472;9.794;2023-01-08T07:44:48;3.57;;;2.23;;
15968;SDS011;8085;53.472;9.794;2023-01-08T07:47:15;4.20;;;2.33;;
15968;SDS011;8085;53.472;9.794;2023-01-08T07:49:42;3.50;;;2.27;;
15968;SDS011;8085;53.472;9.794;2023-01-08T07:52:09;3.47;;;2.40;;
15968;SDS011;8085;53.472;9.794;2023-01-08T07:54:35;6.13;;;2.50;;
15968;SDS011;8085;53.472;9.794;2023-01-08T07:57:02;4.33;;;2.70;;
15968;SDS011;8085;53.472;9.794;2023-01-08T07:59:29;5.63;;;2.47;;
15968;SDS011;8085;53.472;9.794;2023-01-08T08:01:57;4.70;;;2.60;;
15968;SDS011;8085;53.472;9.794;2023-01-08T08:04:24;3.53;;;2.70;;
15968;SDS011;8085;53.472;9.794;2023-01-08T08:06:51;4.47;;;2.60;;
15968;SDS011;8085;53.472;9.794;2023-01-08T08:09:19;3.27;;;2.63;;
15968;SDS011;8085;53.472;9.794;2023-01-08T08:11:45;2.90;;;2.20;;
15968;SDS011;8085;53.472;9.794;2023-01-08T08:14:12;3.47;;;2.63;;
15968;SDS011;8085;53.472;9.794;2023-01-08T08:16:39;3.90;;;2.40;;
15968;SDS011;8085;53.472;9.794;2023-01-08T08:19:07;3.67;;;2.70;;
15968;SDS011;8085;53.472;9.794;2023-01-08T08:21:36;3.07;;;2.30;;
15968;SDS011;8085;53.472;9.794;2023-01-08T08:24:03;6.17;;;2.33;;
15968;SDS011;8085;53.472;9.794;2023-01-08T08:26:31;3.33;;;2.60;;
15968;SDS011;8085;53.472;9.794;2023-01-08T08:28:57;3.47;;;2.30;;
15968;SDS011;8085;53.472;9.794;2023-01-08T08:31:24;3.83;;;2.60;;
15968;SDS011;8085;53.472;9.794;2023-01-08T08:33:51;4.97;;;3.33;;
15968;SDS011;8085;53.472;9.794;2023-01-08T08:36:19;6.53;;;4.87;;
15968;SDS011;8085;53.472;9.794;2023-01-08T08:38:46;7.13;;;4.97;;
15968;SDS011;8085;53.472;9.794;2023-01-08T08:41:13;5.03;;;3.93;;
15968;SDS011;8085;53.472;9.794;2023-01-08T08:43:42;5.73;;;2.90;;
15968;SDS011;8085;53.472;9.794;2023-01-08T08:46:09;3.40;;;2.30;;
15968;SDS011;8085;53.472;9.794;2023-01-08T08:48:35;3.37;;;2.50;;
15968;SDS011;8085;53.472;9.794;2023-01-08T08:51:02;3.43;;;2.43;;
15968;SDS011;8085;53.472;9.794;2023-01-08T08:53:31;4.43;;;2.50;;
15968;SDS011;8085;53.472;9.794;2023-01-08T08:55:57;3.77;;;2.53;;
15968;SDS011;8085;53.472;9.794;2023-01-08T08:58:24;3.50;;;2.50;;
15968;SDS011;8085;53.472;9.794;2023-01-08T09:00:51;3.23;;;2.50;;
15968;SDS011;8085;53.472;9.794;2023-01-08T09:03:18;8.07;;;3.47;;
15968;SDS011;8085;53.472;9.794;2023-01-08T09:05:44;5.13;;;2.90;;
15968;SDS011;8085;53.472;9.794;2023-01-08T09:08:11;5.03;;;3.13;;
15968;SDS011;8085;53.472;9.794;2023-01-08T09:10:39;5.30;;;2.90;;
15968;SDS011;8085;53.472;9.794;2023-01-08T09:13:07;3.47;;;2.20;;
15968;SDS011;8085;53.472;9.794;2023-01-08T09:15:34;3.67;;;2.43;;
15968;SDS011;8085;53.472;9.794;2023-01-08T09:18:02;4.10;;;2.67;;
15968;SDS011;8085;53.472;9.794;2023-01-08T09:20:29;6.43;;;2.37;;
15968;SDS011;8085;53.472;9.794;2023-01-08T09:22:56;2.87;;;2.40;;
15968;SDS011;8085;53.472;9.794;2023-01-08T09:25:23;2.83;;;2.43;;
15968;SDS011;8085;53.472;9.794;2023-01-08T09:27:58;3.00;;;2.23;;
15968;SDS011;8085;53.472;9.794;2023-01-08T09:30:25;3.10;;;2.27;;
15968;SDS011;8085;53.472;9.794;2023-01-08T09:32:55;6.57;;;2.60;;
15968;SDS011;8085;53.472;9.794;2023-01-08T09:35:22;2.60;;;1.97;;
15968;SDS011;8085;53.472;9.794;2023-01-08T09:37:49;3.60;;;2.20;;
15968;SDS011;8085;53.472;9.794;2023-01-08T09:40:16;4.30;;;2.30;;
15968;SDS011;8085;53.472;9.794;2023-01-08T09:42:44;4.00;;;2.53;;
15968;SDS011;8085;53.472;9.794;2023-01-08T09:45:22;3.27;;;1.90;;
15968;SDS011;8085;53.472;9.794;2023-01-08T09:47:51;3.37;;;2.50;;
15968;SDS011;8085;53.472;9.794;2023-01-08T09:50:19;3.83;;;2.27;;
15968;SDS011;8085;53.472;9.794;2023-01-08T09:52:47;3.37;;;2.13;;
15968;SDS011;8085;53.472;9.794;2023-01-08T09:55:14;2.83;;;2.07;;
15968;SDS011;8085;53.472;9.794;2023-01-08T09:57:42;2.33;;;2.13;;
15968;SDS011;8085;53.472;9.794;2023-01-08T10:00:11;4.63;;;1.90;;
15968;SDS011;8085;53.472;9.794;2023-01-08T10:02:41;4.57;;;2.30;;
15968;SDS011;8085;53.472;9.794;2023-01-08T10:05:10;3.27;;;2.10;;
15968;SDS011;8085;53.472;9.794;2023-01-08T10:07:38;3.47;;;2.00;;
15968;SDS011;8085;53.472;9.794;2023-01-08T10:10:07;3.77;;;2.17;;
15968;SDS011;8085;53.472;9.794;2023-01-08T10:12:43;3.83;;;2.23;;
15968;SDS011;8085;53.472;9.794;2023-01-08T10:15:12;3.23;;;2.07;;
15968;SDS011;8085;53.472;9.794;2023-01-08T10:17:44;2.87;;;2.00;;
15968;SDS011;8085;53.472;9.794;2023-01-08T10:20:14;3.70;;;2.17;;
15968;SDS011;8085;53.472;9.794;2023-01-08T10:22:43;3.23;;;1.73;;
15968;SDS011;8085;53.472;9.794;2023-01-08T10:25:12;4.77;;;2.30;;
15968;SDS011;8085;53.472;9.794;2023-01-08T10:27:45;2.67;;;1.80;;
15968;SDS011;8085;53.472;9.794;2023-01-08T10:30:14;2.50;;;2.00;;
15968;SDS011;8085;53.472;9.794;2023-01-08T10:32:49;3.80;;;1.80;;
15968;SDS011;8085;53.472;9.794;2023-01-08T10:35:18;2.47;;;1.90;;
15968;SDS011;8085;53.472;9.794;2023-01-08T10:37:46;3.03;;;2.07;;
15968;SDS011;8085;53.472;9.794;2023-01-08T10:40:22;3.30;;;2.00;;
15968;SDS011;8085;53.472;9.794;2023-01-08T10:42:53;2.40;;;1.83;;
15968;SDS011;8085;53.472;9.794;2023-01-08T10:45:24;5.43;;;2.73;;
15968;SDS011;8085;53.472;9.794;2023-01-08T10:47:56;4.60;;;2.10;;
15968;SDS011;8085;53.472;9.794;2023-01-08T10:50:26;4.40;;;2.43;;
15968;SDS011;8085;53.472;9.794;2023-01-08T10:52:55;2.63;;;2.20;;
15968;SDS011;8085;53.472;9.794;2023-01-08T10:55:24;3.27;;;2.30;;
15968;SDS011;8085;53.472;9.794;2023-01-08T10:57:54;3.50;;;2.40;;
15968;SDS011;8085;53.472;9.794;2023-01-08T11:00:23;5.17;;;2.70;;
15968;SDS011;8085;53.472;9.794;2023-01-08T11:02:51;4.27;;;3.20;;
15968;SDS011;8085;53.472;9.794;2023-01-08T11:05:27;3.43;;;2.80;;
15968;SDS011;8085;53.472;9.794;2023-01-08T11:07:55;3.93;;;2.90;;
15968;SDS011;8085;53.472;9.794;2023-01-08T11:10:24;2.80;;;2.60;;
15968;SDS011;8085;53.472;9.794;2023-01-08T11:12:53;7.07;;;3.20;;
15968;SDS011;8085;53.472;9.794;2023-01-08T11:15:31;3.37;;;3.00;;
15968;SDS011;8085;53.472;9.794;2023-01-08T11:18:04;3.87;;;2.80;;
15968;SDS011;8085;53.472;9.794;2023-01-08T11:20:39;4.13;;;2.60;;
15968;SDS011;8085;53.472;9.794;2023-01-08T11:23:10;3.03;;;2.37;;
15968;SDS011;8085;53.472;9.794;2023-01-08T11:25:42;4.00;;;2.47;;
15968;SDS011;8085;53.472;9.794;2023-01-08T11:28:19;3.70;;;2.77;;
15968;SDS011;8085;53.472;9.794;2023-01-08T11:30:53;4.23;;;2.50;;
15968;SDS011;8085;53.472;9.794;2023-01-08T11:33:24;4.83;;;2.40;;
15968;SDS011;8085;53.472;9.794;2023-01-08T11:35:55;2.97;;;2.20;;
15968;SDS011;8085;53.472;9.794;2023-01-08T11:38:27;3.23;;;2.43;;
15968;SDS011;8085;53.472;9.794;2023-01-08T11:40:57;2.67;;;2.00;;
15968;SDS011;8085;53.472;9.794;2023-01-08T11:43:32;2.07;;;1.87;;
15968;SDS011;8085;53.472;9.794;2023-01-08T11:46:14;2.23;;;1.87;;
15968;SDS011;8085;53.472;9.794;2023-01-08T11:49:07;4.17;;;2.07;;
15968;SDS011;8085;53.472;9.794;2023-01-08T11:51:51;4.10;;;1.70;;
15968;SDS011;8085;53.472;9.794;2023-01-08T11:54:32;3.70;;;1.60;;
15968;SDS011;8085;53.472;9.794;2023-01-08T11:57:16;2.10;;;1.70;;
15968;SDS011;8085;53.472;9.794;2023-01-08T11:59:52;2.87;;;1.50;;
15968;SDS011;8085;53.472;9.794;2023-01-08T12:02:31;3.23;;;1.70;;
15968;SDS011;8085;53.472;9.794;2023-01-08T12:08:00;3.03;;;1.60;;
15968;SDS011;8085;53.472;9.794;2023-01-08T12:10:31;1.90;;;1.40;;
15968;SDS011;8085;53.472;9.794;2023-01-08T12:13:23;2.33;;;1.47;;
15968;SDS011;8085;53.472;9.794;2023-01-08T12:16:00;3.10;;;1.30;;
15968;SDS011;8085;53.472;9.794;2023-01-08T12:21:30;2.10;;;1.10;;
15968;SDS011;8085;53.472;9.794;2023-01-08T12:24:05;3.10;;;1.50;;
15968;SDS011;8085;53.472;9.794;2023-01-08T12:26:55;2.23;;;1.17;;
15968;SDS011;8085;53.472;9.794;2023-01-08T12:29:42;1.50;;;1.20;;
15968;SDS011;8085;53.472;9.794;2023-01-08T12:32:20;1.83;;;1.03;;
15968;SDS011;8085;53.472;9.794;2023-01-08T12:34:54;1.63;;;1.20;;
15968;SDS011;8085;53.472;9.794;2023-01-08T12:37:25;2.83;;;1.50;;
15968;SDS011;8085;53.472;9.794;2023-01-08T12:39:59;2.70;;;1.23;;
15968;SDS011;8085;53.472;9.794;2023-01-08T12:42:31;2.53;;;1.53;;
15968;SDS011;8085;53.472;9.794;2023-01-08T12:45:01;1.80;;;1.40;;
15968;SDS011;8085;53.472;9.794;2023-01-08T12:47:31;1.97;;;1.30;;
15968;SDS011;8085;53.472;9.794;2023-01-08T12:50:04;2.53;;;1.60;;
15968;SDS011;8085;53.472;9.794;2023-01-08T12:52:46;1.53;;;1.30;;
15968;SDS011;8085;53.472;9.794;2023-01-08T12:55:26;3.33;;;1.40;;
15968;SDS011;8085;53.472;9.794;2023-01-08T12:58:03;2.23;;;1.47;;
15968;SDS011;8085;53.472;9.794;2023-01-08T13:00:36;2.20;;;1.53;;
15968;SDS011;8085;53.472;9.794;2023-01-08T13:03:09;2.50;;;1.33;;
15968;SDS011;8085;53.472;9.794;2023-01-08T13:05:39;2.47;;;1.40;;
15968;SDS011;8085;53.472;9.794;2023-01-08T13:08:18;2.23;;;1.37;;
15968;SDS011;8085;53.472;9.794;2023-01-08T13:10:54;2.07;;;1.27;;
15968;SDS011;8085;53.472;9.794;2023-01-08T13:13:24;2.70;;;1.40;;
15968;SDS011;8085;53.472;9.794;2023-01-08T13:16:03;1.70;;;1.20;;
15968;SDS011;8085;53.472;9.794;2023-01-08T13:18:49;1.40;;;1.30;;
15968;SDS011;8085;53.472;9.794;2023-01-08T13:21:17;3.43;;;1.40;;
15968;SDS011;8085;53.472;9.794;2023-01-08T13:23:58;1.53;;;1.10;;
15968;SDS011;8085;53.472;9.794;2023-01-08T13:26:31;1.87;;;1.20;;
15968;SDS011;8085;53.472;9.794;2023-01-08T13:29:07;1.87;;;1.00;;
15968;SDS011;8085;53.472;9.794;2023-01-08T13:31:48;2.03;;;1.07;;
15968;SDS011;8085;53.472;9.794;2023-01-08T13:34:16;1.77;;;1.00;;
15968;SDS011;8085;53.472;9.794;2023-01-08T13:36:53;2.33;;;1.10;;
15968;SDS011;8085;53.472;9.794;2023-01-08T13:39:21;3.67;;;0.90;;
15968;SDS011;8085;53.472;9.794;2023-01-08T13:41:57;3.70;;;1.10;;
15968;SDS011;8085;53.472;9.794;2023-01-08T13:44:27;4.33;;;1.23;;
15968;SDS011;8085;53.472;9.794;2023-01-08T13:46:55;4.07;;;1.00;;
15968;SDS011;8085;53.472;9.794;2023-01-08T13:49:25;2.67;;;0.90;;
15968;SDS011;8085;53.472;9.794;2023-01-08T13:51:56;5.33;;;1.17;;
15968;SDS011;8085;53.472;9.794;2023-01-08T13:54:26;3.30;;;1.00;;
15968;SDS011;8085;53.472;9.794;2023-01-08T13:57:04;3.43;;;1.10;;
15968;SDS011;8085;53.472;9.794;2023-01-08T13:59:38;4.70;;;1.30;;
15968;SDS011;8085;53.472;9.794;2023-01-08T14:02:26;3.33;;;1.20;;
15968;SDS011;8085;53.472;9.794;2023-01-08T14:04:55;4.80;;;1.30;;
15968;SDS011;8085;53.472;9.794;2023-01-08T14:07:23;6.07;;;1.37;;
15968;SDS011;8085;53.472;9.794;2023-01-08T14:09:50;4.10;;;1.00;;
15968;SDS011;8085;53.472;9.794;2023-01-08T14:12:20;3.23;;;0.93;;
15968;SDS011;8085;53.472;9.794;2023-01-08T14:14:49;6.00;;;1.20;;
15968;SDS011;8085;53.472;9.794;2023-01-08T14:17:19;5.43;;;1.20;;
15968;SDS011;8085;53.472;9.794;2023-01-08T14:19:47;6.10;;;1.37;;
15968;SDS011;8085;53.472;9.794;2023-01-08T14:22:16;5.60;;;1.30;;
15968;SDS011;8085;53.472;9.794;2023-01-08T14:24:45;3.50;;;1.07;;
15968;SDS011;8085;53.472;9.794;2023-01-08T14:27:22;5.43;;;1.30;;
15968;SDS011;8085;53.472;9.794;2023-01-08T14:29:51;5.23;;;1.03;;
15968;SDS011;8085;53.472;9.794;2023-01-08T14:32:18;7.13;;;1.80;;
15968;SDS011;8085;53.472;9.794;2023-01-08T14:34:48;6.23;;;1.43;;
15968;SDS011;8085;53.472;9.794;2023-01-08T14:37:16;5.43;;;1.30;;
15968;SDS011;8085;53.472;9.794;2023-01-08T14:39:43;6.30;;;1.30;;
15968;SDS011;8085;53.472;9.794;2023-01-08T14:42:13;6.43;;;1.43;;
15968;SDS011;8085;53.472;9.794;2023-01-08T14:45:13;6.87;;;1.30;;
15968;SDS011;8085;53.472;9.794;2023-01-08T14:47:44;4.80;;;1.53;;
15968;SDS011;8085;53.472;9.794;2023-01-08T14:50:17;8.00;;;1.60;;
15968;SDS011;8085;53.472;9.794;2023-01-08T14:52:46;6.70;;;1.57;;
15968;SDS011;8085;53.472;9.794;2023-01-08T14:55:14;5.80;;;1.43;;
15968;SDS011;8085;53.472;9.794;2023-01-08T14:57:43;4.30;;;1.47;;
15968;SDS011;8085;53.472;9.794;2023-01-08T15:00:16;3.93;;;1.30;;
15968;SDS011;8085;53.472;9.794;2023-01-08T15:02:45;5.00;;;1.50;;
15968;SDS011;8085;53.472;9.794;2023-01-08T15:05:14;8.67;;;1.70;;
15968;SDS011;8085;53.472;9.794;2023-01-08T15:07:53;8.20;;;2.00;;
15968;SDS011;8085;53.472;9.794;2023-01-08T15:13:20;4.87;;;1.47;;
15968;SDS011;8085;53.472;9.794;2023-01-08T15:15:51;3.40;;;1.20;;
15968;SDS011;8085;53.472;9.794;2023-01-08T15:18:21;8.03;;;1.60;;
15968;SDS011;8085;53.472;9.794;2023-01-08T15:20:48;4.97;;;1.73;;
15968;SDS011;8085;53.472;9.794;2023-01-08T15:23:26;6.90;;;1.83;;
15968;SDS011;8085;53.472;9.794;2023-01-08T15:25:59;5.33;;;1.73;;